Time;durP1;ratioP1;P1;durP2;ratioP2;P2;SDS_P1;SDS_P2;PMS_P1;PMS_P2;Temp;Humidity;BMP_temperature;BMP_pressure;BME280_temperature;BME280_humidity;BME280_pressure;Samples;Min_cycle;Max_cycle;Signal;HPM_P1;HPM_P2
2021/09/08 00:01:58;;;;;;;6.53;2.20;;;;;;;11.76;55.06;100702.27;1697488;80;21053;-54
2021/09/08 00:04:25;;;;;;;5.05;2.67;;;;;;;11.75;55.10;100699.16;1683336;82;22880;-53
2021/09/08 00:06:52;;;;;;;8.10;2.10;;;;;;;11.72;55.11;100704.19;1680609;82;22123;-54
2021/09/08 00:09:18;;;;;;;4.28;2.85;;;;;;;11.71;55.19;100701.55;1685837;82;21073;-53
2021/09/08 00:11:46;;;;;;;7.87;2.15;;;;;;;11.70;55.22;100707.41;1683184;82;21100;-54
2021/09/08 00:14:12;;;;;;;4.95;2.25;;;;;;;11.69;55.28;100706.11;1685486;82;20995;-53
2021/09/08 00:16:40;;;;;;;3.22;1.95;;;;;;;11.66;55.19;100713.84;1629045;85;20997;-54
2021/09/08 00:19:07;;;;;;;4.35;2.37;;;;;;;11.65;55.05;100709.88;1674502;83;21050;-53
2021/09/08 00:21:35;;;;;;;5.05;1.90;;;;;;;11.64;55.00;100709.46;1655389;83;20960;-54
2021/09/08 00:24:03;;;;;;;4.22;1.95;;;;;;;11.62;55.16;100716.25;1672811;83;22379;-53
2021/09/08 00:26:29;;;;;;;7.80;2.33;;;;;;;11.62;55.13;100712.67;1686203;82;21014;-54
2021/09/08 00:28:56;;;;;;;4.50;1.98;;;;;;;11.60;55.22;100715.42;1685896;82;20898;-54
2021/09/08 00:31:22;;;;;;;3.60;2.08;;;;;;;11.58;55.05;100713.25;1683265;82;21022;-52
2021/09/08 00:33:49;;;;;;;3.65;2.08;;;;;;;11.58;55.21;100717.29;1685223;82;21072;-53
2021/09/08 00:36:15;;;;;;;3.10;1.85;;;;;;;11.58;55.20;100713.71;1683728;82;22452;-54
2021/09/08 00:38:44;;;;;;;3.87;1.77;;;;;;;11.58;55.12;100716.41;1685555;82;21012;-54
2021/09/08 00:41:10;;;;;;;5.30;2.25;;;;;;;11.57;54.94;100714.68;1685341;82;21046;-54
2021/09/08 00:43:37;;;;;;;2.30;1.55;;;;;;;11.56;55.00;100704.83;1688656;82;21022;-53
2021/09/08 00:46:04;;;;;;;3.27;1.60;;;;;;;11.56;54.92;100704.83;1686960;82;20975;-53
2021/09/08 00:48:31;;;;;;;4.25;1.47;;;;;;;11.56;54.74;100710.22;1687238;82;22215;-54
2021/09/08 00:51:00;;;;;;;4.28;2.08;;;;;;;11.55;54.69;100712.50;1688903;82;20946;-54
2021/09/08 00:53:27;;;;;;;4.80;1.40;;;;;;;11.55;54.81;100707.11;1685799;82;21030;-53
2021/09/08 00:55:55;;;;;;;5.53;1.50;;;;;;;11.55;54.89;100715.20;1688327;82;21030;-53
2021/09/08 00:58:22;;;;;;;6.22;2.22;;;;;;;11.55;54.85;100706.64;1690660;82;21054;-54
2021/09/08 01:00:48;;;;;;;2.77;2.10;;;;;;;11.55;54.74;100712.50;1689107;82;21090;-54
2021/09/08 01:03:15;;;;;;;3.62;1.62;;;;;;;11.55;54.87;100709.80;1666773;83;20975;-54
2021/09/08 01:05:47;;;;;;;6.45;1.90;;;;;;;11.53;54.78;100707.16;1667466;83;21073;-54
2021/09/08 01:08:15;;;;;;;3.98;1.92;;;;;;;11.53;54.93;100713.02;1726119;80;22336;-53
2021/09/08 01:10:44;;;;;;;4.30;1.77;;;;;;;11.52;54.92;100709.91;1726766;80;21081;-53
2021/09/08 01:13:11;;;;;;;6.85;2.15;;;;;;;11.52;54.93;100708.55;1639697;83;21119;-54
2021/09/08 01:15:39;;;;;;;3.75;1.70;;;;;;;11.51;55.13;100713.53;1727147;80;21027;-53
2021/09/08 01:18:07;;;;;;;2.08;1.62;;;;;;;11.50;55.12;100713.12;1724862;80;21131;-53
2021/09/08 01:20:33;;;;;;;3.75;1.57;;;;;;;11.48;55.11;100715.02;1727483;80;21097;-53
2021/09/08 01:22:59;;;;;;;4.20;1.67;;;;;;;11.46;55.14;100704.28;1727780;80;21395;-54
2021/09/08 01:25:27;;;;;;;3.83;1.67;;;;;;;11.45;55.10;100704.33;1729094;80;21426;-53
2021/09/08 01:27:54;;;;;;;5.62;2.33;;;;;;;11.44;55.05;100701.22;1731079;80;20942;-54
2021/09/08 01:30:25;;;;;;;3.65;1.52;;;;;;;11.42;55.08;100701.27;1666464;83;21396;-53
2021/09/08 01:32:52;;;;;;;7.00;2.25;;;;;;;11.41;55.07;100701.31;1666690;83;21606;-52
2021/09/08 01:35:21;;;;;;;7.80;2.05;;;;;;;11.39;55.05;100701.41;1668299;83;22193;-52
2021/09/08 01:37:47;;;;;;;3.65;1.90;;;;;;;11.40;55.14;100700.94;1663823;83;21168;-53
2021/09/08 01:40:15;;;;;;;6.47;2.10;;;;;;;11.36;55.19;100705.08;1727122;80;21026;-54
2021/09/08 01:42:41;;;;;;;6.75;2.12;;;;;;;11.35;55.29;100697.05;1726161;80;21038;-54
2021/09/08 01:45:11;;;;;;;4.83;2.60;;;;;;;11.33;55.24;100699.79;1725454;80;21105;-54
2021/09/08 01:47:39;;;;;;;7.40;2.20;;;;;;;11.31;55.22;100692.72;1733880;80;20998;-54
2021/09/08 01:50:07;;;;;;;3.30;1.67;;;;;;;11.30;55.28;100692.30;1728550;80;21403;-54
2021/09/08 01:52:35;;;;;;;5.92;2.12;;;;;;;11.28;55.20;100690.12;1727189;80;20951;-53
2021/09/08 01:55:01;;;;;;;9.40;2.92;;;;;;;11.26;55.28;100693.33;1724477;80;21587;-54
2021/09/08 01:57:28;;;;;;;3.77;1.90;;;;;;;11.23;55.22;100691.62;1725158;80;21097;-54
2021/09/08 01:59:54;;;;;;;6.40;2.45;;;;;;;11.22;55.42;100688.54;1728211;80;21058;-53
2021/09/08 02:02:20;;;;;;;5.87;2.17;;;;;;;11.20;55.26;100685.02;1726994;80;21147;-54
2021/09/08 02:04:46;;;;;;;7.40;2.15;;;;;;;11.20;55.28;100686.83;1726828;80;21487;-53
2021/09/08 02:07:13;;;;;;;8.33;2.87;;;;;;;11.18;55.24;100692.27;1724505;80;21482;-53
2021/09/08 02:09:40;;;;;;;6.15;1.82;;;;;;;11.17;55.29;100689.16;1725885;80;21077;-53
2021/09/08 02:12:06;;;;;;;6.50;2.20;;;;;;;11.16;55.35;100698.17;1725414;80;21587;-52
2021/09/08 02:14:32;;;;;;;4.03;1.80;;;;;;;11.16;55.37;100687.85;1727093;80;21048;-54
2021/09/08 02:16:59;;;;;;;4.25;2.05;;;;;;;11.16;55.40;100691.43;1660341;83;21172;-54
2021/09/08 02:19:26;;;;;;;4.67;2.20;;;;;;;11.14;55.47;100691.09;1665131;83;21196;-53
2021/09/08 02:21:52;;;;;;;6.28;1.87;;;;;;;11.13;55.47;100695.61;1728038;80;21058;-53
2021/09/08 02:24:19;;;;;;;3.62;2.10;;;;;;;11.11;55.59;100693.42;1723440;80;21073;-53
2021/09/08 02:26:45;;;;;;;6.67;2.52;;;;;;;11.10;55.57;100691.66;1727563;80;22578;-53
2021/09/08 02:29:13;;;;;;;4.60;1.95;;;;;;;11.08;55.59;100689.48;1727245;80;21065;-53
2021/09/08 02:31:39;;;;;;;3.85;1.95;;;;;;;11.07;55.55;100690.41;1728277;80;21325;-53
2021/09/08 02:34:05;;;;;;;5.75;2.10;;;;;;;11.05;55.67;100692.30;1726203;80;21405;-53
2021/09/08 02:36:32;;;;;;;3.77;1.75;;;;;;;11.04;55.67;100693.23;1724237;80;21714;-53
2021/09/08 02:39:00;;;;;;;3.92;2.00;;;;;;;11.03;55.69;100687.42;1726651;80;21144;-53
2021/09/08 02:41:26;;;;;;;6.67;2.37;;;;;;;11.01;55.60;100696.02;1729392;80;21546;-54
2021/09/08 02:43:53;;;;;;;3.70;1.77;;;;;;;10.98;55.60;100695.66;1725588;80;21136;-53
2021/09/08 02:46:20;;;;;;;6.53;2.12;;;;;;;10.98;55.54;100686.69;1731499;80;20985;-52
2021/09/08 02:48:46;;;;;;;6.90;2.83;;;;;;;10.98;55.66;100690.73;1722547;80;21088;-53
2021/09/08 02:51:13;;;;;;;2.95;1.65;;;;;;;10.98;55.66;100688.92;1729260;80;21175;-53
2021/09/08 02:53:39;;;;;;;7.42;1.90;;;;;;;10.98;55.60;100692.08;1726232;80;21073;-53
2021/09/08 02:56:06;;;;;;;4.65;2.35;;;;;;;10.97;55.50;100690.34;1726830;80;21047;-53
2021/09/08 02:58:33;;;;;;;5.17;2.25;;;;;;;10.95;55.57;100689.05;1721825;80;21099;-53
2021/09/08 03:01:00;;;;;;;3.95;1.67;;;;;;;10.93;55.61;100688.21;1644365;83;21093;-53
2021/09/08 03:03:26;;;;;;;4.30;1.75;;;;;;;10.93;55.49;100693.59;1716892;80;23331;-53
2021/09/08 03:05:52;;;;;;;4.20;1.82;;;;;;;10.92;55.45;100693.64;1714960;81;21748;-53
2021/09/08 03:08:19;;;;;;;4.17;1.80;;;;;;;10.92;55.51;100685.56;1717400;81;21140;-53
2021/09/08 03:10:46;;;;;;;5.28;1.65;;;;;;;10.92;55.54;100690.95;1716130;81;21496;-53
2021/09/08 03:13:15;;;;;;;3.30;1.42;;;;;;;10.92;55.69;100686.91;1716028;81;21535;-53
2021/09/08 03:15:44;;;;;;;1.92;1.55;;;;;;;10.90;55.83;100684.73;1718466;81;20923;-53
2021/09/08 03:18:10;;;;;;;4.00;1.62;;;;;;;10.89;55.73;100684.31;1717614;81;21006;-54
2021/09/08 03:20:36;;;;;;;8.68;2.02;;;;;;;10.88;55.83;100687.97;1719885;81;21014;-54
2021/09/08 03:23:03;;;;;;;2.60;1.47;;;;;;;10.87;55.80;100690.25;1719524;81;20911;-53
2021/09/08 03:25:29;;;;;;;7.95;1.52;;;;;;;10.86;55.93;100688.48;1719710;81;20946;-53
2021/09/08 03:27:57;;;;;;;2.92;1.27;;;;;;;10.84;55.84;100683.61;1717250;81;21102;-54
2021/09/08 03:30:25;;;;;;;5.05;1.55;;;;;;;10.85;55.84;100686.72;1720503;81;21002;-54
2021/09/08 03:32:51;;;;;;;4.78;1.75;;;;;;;10.82;55.84;100684.12;1722608;81;20970;-54
2021/09/08 03:35:17;;;;;;;7.62;2.17;;;;;;;10.80;55.98;100681.47;1721002;81;20927;-54
2021/09/08 03:37:44;;;;;;;9.58;1.98;;;;;;;10.81;56.23;100691.31;1719466;81;20923;-54
2021/09/08 03:40:11;;;;;;;5.47;1.82;;;;;;;10.82;56.42;100693.08;1718840;81;21066;-54
2021/09/08 03:42:40;;;;;;;8.25;1.70;;;;;;;10.83;56.64;100696.66;1718477;81;21006;-54
2021/09/08 03:45:09;;;;;;;7.83;2.37;;;;;;;10.83;56.62;100688.11;1718806;81;20898;-53
2021/09/08 03:47:35;;;;;;;2.90;2.12;;;;;;;10.85;56.61;100689.41;1713733;81;21021;-54
2021/09/08 03:50:02;;;;;;;5.80;2.05;;;;;;;10.85;56.81;100692.10;1718610;81;20907;-53
2021/09/08 03:52:29;;;;;;;5.78;1.75;;;;;;;10.86;56.92;100695.22;1718886;81;21054;-54
2021/09/08 03:54:55;;;;;;;6.92;2.40;;;;;;;10.85;56.75;100697.02;1721121;81;20931;-53
2021/09/08 03:57:22;;;;;;;3.77;1.80;;;;;;;10.86;56.71;100696.09;1719648;81;21537;-54
2021/09/08 03:59:50;;;;;;;6.67;2.05;;;;;;;10.86;56.74;100696.09;1720560;81;21267;-54
2021/09/08 04:02:16;;;;;;;8.23;1.70;;;;;;;10.87;56.88;100691.59;1723118;81;21721;-53
2021/09/08 04:04:42;;;;;;;5.25;1.90;;;;;;;10.88;56.97;100692.89;1716468;81;21096;-53
2021/09/08 04:07:11;;;;;;;3.60;1.75;;;;;;;10.88;56.84;100684.81;1721264;81;21038;-54
2021/09/08 04:09:38;;;;;;;5.08;1.52;;;;;;;10.91;56.77;100687.84;1719394;81;20950;-53
2021/09/08 04:12:06;;;;;;;8.08;2.65;;;;;;;10.93;56.72;100687.33;1717450;81;21282;-53
2021/09/08 04:14:33;;;;;;;7.12;1.87;;;;;;;10.94;56.89;100690.44;1721111;81;21014;-53
2021/09/08 04:17:00;;;;;;;7.70;1.50;;;;;;;10.95;56.95;100689.51;1721189;81;21417;-53
2021/09/08 04:19:26;;;;;;;6.35;1.98;;;;;;;10.96;56.95;100692.16;1720861;81;20970;-53
2021/09/08 04:21:52;;;;;;;4.78;1.85;;;;;;;10.97;56.98;100695.23;1721078;81;20962;-53
2021/09/08 04:24:19;;;;;;;3.80;1.40;;;;;;;10.99;57.15;100699.23;1716687;81;21042;-54
2021/09/08 04:26:46;;;;;;;6.25;1.80;;;;;;;11.00;57.13;100695.14;1718670;81;22494;-54
2021/09/08 04:29:14;;;;;;;4.33;1.72;;;;;;;11.03;57.31;100699.55;1718283;81;21515;-54
2021/09/08 04:31:41;;;;;;;5.37;2.00;;;;;;;11.04;57.54;100697.27;1643164;84;21285;-54
2021/09/08 04:34:08;;;;;;;5.75;2.17;;;;;;;11.05;57.54;100690.08;1721124;81;21121;-53
2021/09/08 04:36:35;;;;;;;3.35;2.02;;;;;;;11.06;57.63;100689.98;1718629;81;21438;-54
2021/09/08 04:39:01;;;;;;;4.83;1.75;;;;;;;11.09;57.58;100689.02;1636162;84;21713;-54
2021/09/08 04:41:27;;;;;;;3.55;1.62;;;;;;;11.12;57.71;100686.22;1719041;81;21128;-53
2021/09/08 04:43:54;;;;;;;7.00;1.80;;;;;;;11.16;57.85;100684.69;1718657;81;21054;-53
2021/09/08 04:46:20;;;;;;;4.15;2.00;;;;;;;11.20;57.82;100689.05;1720913;81;21113;-53
2021/09/08 04:48:47;;;;;;;8.10;2.17;;;;;;;11.21;57.79;100692.17;1718096;81;21033;-54
2021/09/08 04:51:15;;;;;;;6.45;2.08;;;;;;;11.25;57.90;100690.22;1715662;81;21061;-53
2021/09/08 04:53:42;;;;;;;6.83;1.92;;;;;;;11.29;57.85;100694.58;1720636;81;23327;-53
2021/09/08 04:56:08;;;;;;;4.42;1.98;;;;;;;11.31;57.72;100690.87;1718602;81;21333;-53
2021/09/08 04:58:35;;;;;;;4.62;1.82;;;;;;;11.35;57.87;100692.53;1717756;81;21321;-54
2021/09/08 05:01:01;;;;;;;4.03;1.72;;;;;;;11.38;57.92;100692.44;1716487;81;21550;-54
2021/09/08 05:03:27;;;;;;;4.80;1.37;;;;;;;11.43;57.92;100684.63;1711075;81;21558;-53
2021/09/08 05:05:54;;;;;;;7.70;1.72;;;;;;;11.47;57.96;100690.34;1703693;82;21098;-54
2021/09/08 05:08:20;;;;;;;6.80;1.98;;;;;;;11.48;57.87;100679.50;1705137;82;21061;-53
2021/09/08 05:10:47;;;;;;;7.08;2.10;;;;;;;11.52;58.01;100690.56;1704726;81;21037;-54
2021/09/08 05:13:13;;;;;;;3.55;2.27;;;;;;;11.56;58.09;100688.65;1707339;82;21041;-53
2021/09/08 05:15:41;;;;;;;5.85;1.95;;;;;;;11.61;58.12;100681.25;1705629;81;21034;-54
2021/09/08 05:18:09;;;;;;;4.22;1.90;;;;;;;11.68;58.06;100682.77;1704287;82;21038;-53
2021/09/08 05:20:36;;;;;;;4.20;1.70;;;;;;;11.77;58.12;100680.23;1703577;82;21651;-53
2021/09/08 05:23:04;;;;;;;5.55;2.17;;;;;;;11.88;58.40;100686.09;1711612;82;21475;-53
2021/09/08 05:25:31;;;;;;;8.43;2.40;;;;;;;11.99;58.29;100679.83;1712502;82;21053;-53
2021/09/08 05:27:57;;;;;;;4.92;1.52;;;;;;;12.10;58.20;100677.55;1713633;82;21132;-53
2021/09/08 05:30:23;;;;;;;6.22;1.50;;;;;;;12.24;58.19;100672.98;1712361;82;21148;-53
2021/09/08 05:32:50;;;;;;;2.80;1.30;;;;;;;12.37;58.00;100668.82;1716067;82;21057;-53
2021/09/08 05:35:16;;;;;;;4.62;1.00;;;;;;;12.54;57.89;100665.42;1711160;82;21058;-53
2021/09/08 05:37:44;;;;;;;4.47;1.47;;;;;;;12.68;57.83;100668.41;1717615;82;21203;-53
2021/09/08 05:40:11;;;;;;;3.42;1.20;;;;;;;12.82;57.64;100669.60;1699318;82;21038;-53
2021/09/08 05:42:37;;;;;;;3.98;1.07;;;;;;;12.94;57.38;100667.30;1705126;82;21009;-53
2021/09/08 05:45:05;;;;;;;3.15;1.27;;;;;;;13.03;57.12;100659.66;1709578;82;20950;-54
2021/09/08 05:47:33;;;;;;;6.15;1.42;;;;;;;13.13;56.93;100662.84;1704588;82;21075;-53
2021/09/08 05:49:59;;;;;;;3.72;1.45;;;;;;;13.22;56.84;100657.95;1702414;82;21730;-54
2021/09/08 05:52:26;;;;;;;2.37;1.00;;;;;;;13.30;56.59;100656.72;1702218;82;21555;-53
2021/09/08 05:54:52;;;;;;;8.18;1.40;;;;;;;13.37;56.67;100662.25;1702560;82;21353;-53
2021/09/08 05:57:19;;;;;;;5.92;1.77;;;;;;;13.43;56.75;100658.81;1707257;81;21064;-53
2021/09/08 05:59:46;;;;;;;6.28;1.20;;;;;;;13.51;56.51;100656.64;1668872;83;21374;-53
2021/09/08 06:02:13;;;;;;;2.22;1.40;;;;;;;13.58;56.39;100655.41;1673063;83;21093;-53
2021/09/08 06:04:39;;;;;;;2.50;1.32;;;;;;;13.66;56.04;100650.98;1689251;82;21778;-53
2021/09/08 06:07:06;;;;;;;4.15;1.62;;;;;;;13.78;56.14;100651.74;1694128;82;22506;-53
2021/09/08 06:09:33;;;;;;;2.62;1.00;;;;;;;13.88;56.09;100653.07;1695410;82;21173;-53
2021/09/08 06:12:00;;;;;;;2.52;1.57;;;;;;;14.00;56.17;100652.97;1692545;82;21073;-53
2021/09/08 06:14:29;;;;;;;8.00;0.90;;;;;;;14.12;55.87;100656.42;1701039;82;21472;-53
2021/09/08 06:16:56;;;;;;;4.10;0.90;;;;;;;14.23;55.61;100655.43;1689309;83;21465;-53
2021/09/08 06:19:23;;;;;;;1.77;0.90;;;;;;;14.33;55.93;100658.09;1675029;83;21693;-54
2021/09/08 06:21:50;;;;;;;2.40;0.93;;;;;;;14.45;55.71;100656.66;1671750;83;21927;-54
2021/09/08 06:24:18;;;;;;;3.25;1.37;;;;;;;14.55;55.56;100655.69;1731884;80;20990;-53
2021/09/08 06:26:45;;;;;;;2.35;1.20;;;;;;;14.63;55.13;100651.64;1665957;83;20998;-52
2021/09/08 06:29:12;;;;;;;2.90;1.10;;;;;;;14.72;54.79;100651.17;1663764;83;22072;-52
2021/09/08 06:31:38;;;;;;;2.22;1.00;;;;;;;14.80;54.55;100654.84;1725868;80;21113;-53
2021/09/08 06:34:04;;;;;;;3.47;1.00;;;;;;;14.88;54.67;100644.52;1730392;80;20879;-53
2021/09/08 06:36:31;;;;;;;2.75;0.90;;;;;;;14.98;54.24;100643.05;1728228;80;20895;-54
2021/09/08 06:38:57;;;;;;;2.65;1.00;;;;;;;15.08;54.24;100643.45;1726758;81;21765;-53
2021/09/08 06:41:23;;;;;;;2.90;1.00;;;;;;;15.15;53.87;100640.33;1661570;83;22151;-55
2021/09/08 06:43:49;;;;;;;3.17;1.10;;;;;;;15.23;53.90;100641.28;1730505;80;21120;-54
2021/09/08 06:46:16;;;;;;;3.47;0.95;;;;;;;15.35;54.10;100631.62;1729689;80;21006;-54
2021/09/08 06:48:43;;;;;;;2.25;0.95;;;;;;;15.43;54.11;100624.81;1731535;80;20895;-55
2021/09/08 06:51:09;;;;;;;3.10;1.00;;;;;;;15.43;54.11;100624.81;1732696;80;21007;-55
2021/09/08 06:53:37;;;;;;;4.28;1.10;;;;;;;15.51;54.56;100630.70;1732920;80;20982;-54
2021/09/08 06:56:05;;;;;;;1.25;0.98;;;;;;;15.60;54.36;100630.71;1730168;80;21818;-55
2021/09/08 06:58:32;;;;;;;1.80;0.95;;;;;;;15.70;54.01;100632.44;1728417;80;21437;-55
2021/09/08 07:00:59;;;;;;;3.92;1.27;;;;;;;15.77;53.74;100636.08;1724854;80;21164;-54
2021/09/08 07:03:26;;;;;;;3.35;1.00;;;;;;;15.87;53.49;100633.26;1725479;80;21088;-54
2021/09/08 07:05:54;;;;;;;2.10;1.07;;;;;;;15.97;53.32;100637.69;1725890;80;21132;-54
2021/09/08 07:08:21;;;;;;;2.15;1.27;;;;;;;16.07;53.16;100634.86;1728071;80;21813;-54
2021/09/08 07:10:48;;;;;;;3.33;1.20;;;;;;;16.17;53.04;100633.82;1726032;80;21121;-55
2021/09/08 07:13:14;;;;;;;1.75;0.80;;;;;;;16.26;53.26;100631.45;1724163;81;21108;-54
2021/09/08 07:17:45;;;;;;;2.83;0.90;;;;;;;16.50;53.33;100633.73;1771130;78;25603;-55
2021/09/08 07:20:13;;;;;;;5.22;1.17;;;;;;;16.57;53.31;100641.44;1736916;80;21191;-55
2021/09/08 07:22:39;;;;;;;2.10;1.10;;;;;;;16.68;53.28;100638.57;1734924;80;21566;-54
2021/09/08 07:25:07;;;;;;;4.45;0.93;;;;;;;16.78;53.31;100641.14;1734682;80;21268;-54
2021/09/08 07:27:34;;;;;;;3.40;0.98;;;;;;;16.89;52.88;100641.38;1738902;80;21468;-55
2021/09/08 07:30:00;;;;;;;1.85;1.00;;;;;;;16.98;52.61;100638.98;1701475;81;21043;-55
2021/09/08 07:32:27;;;;;;;2.10;1.10;;;;;;;17.10;52.14;100644.14;1695890;81;21294;-55
2021/09/08 07:34:57;;;;;;;5.95;0.82;;;;;;;17.19;52.18;100647.66;1687289;82;21105;-54
2021/09/08 07:37:21;;;;;;;4.03;1.00;;;;;;;17.25;51.91;100644.59;1683656;82;21021;-54
2021/09/08 07:39:49;;;;;;;2.12;1.00;;;;;;;17.33;51.59;100642.27;1681025;82;21032;-55
2021/09/08 07:42:16;;;;;;;5.72;0.95;;;;;;;17.43;51.56;100634.89;1681798;82;21180;-54
2021/09/08 07:44:44;;;;;;;4.92;0.90;;;;;;;17.51;51.42;100638.89;1678914;82;21097;-54
2021/09/08 07:47:10;;;;;;;7.95;1.00;;;;;;;17.61;51.15;100642.75;1681226;82;22637;-55
2021/09/08 07:49:37;;;;;;;6.87;0.90;;;;;;;17.70;51.35;100642.20;1679667;82;21049;-55
2021/09/08 07:52:05;;;;;;;3.87;1.20;;;;;;;17.80;51.19;100635.69;1683691;82;21749;-54
2021/09/08 07:54:32;;;;;;;4.30;0.80;;;;;;;17.89;51.31;100637.83;1682024;82;21139;-55
2021/09/08 07:56:59;;;;;;;3.50;0.93;;;;;;;17.99;50.99;100636.75;1681160;82;21107;-54
2021/09/08 07:59:25;;;;;;;6.67;1.35;;;;;;;18.09;50.58;100632.45;1680659;82;21673;-55
2021/09/08 08:01:51;;;;;;;2.08;0.93;;;;;;;18.21;50.18;100628.03;1684356;82;21105;-55
2021/09/08 08:04:19;;;;;;;4.05;1.07;;;;;;;18.31;50.12;100623.73;1684868;82;21135;-55
2021/09/08 08:06:45;;;;;;;1.67;0.80;;;;;;;18.39;50.08;100625.45;1686500;82;21566;-55
2021/09/08 08:09:12;;;;;;;5.75;1.07;;;;;;;18.48;50.19;100618.91;1683143;82;21546;-55
2021/09/08 08:11:38;;;;;;;1.90;0.88;;;;;;;18.58;50.37;100618.31;1679742;82;21164;-55
2021/09/08 08:14:06;;;;;;;2.05;0.80;;;;;;;18.69;50.08;100615.75;1681760;82;21048;-55
2021/09/08 08:16:32;;;;;;;2.05;0.80;;;;;;;18.80;49.21;100616.74;1684541;82;21115;-55
2021/09/08 08:18:59;;;;;;;1.52;0.75;;;;;;;18.90;49.05;100616.50;1688477;83;21115;-55
2021/09/08 08:21:26;;;;;;;5.53;0.85;;;;;;;18.98;48.73;100609.14;1674136;83;22325;-55
2021/09/08 08:23:53;;;;;;;3.87;1.00;;;;;;;19.07;48.89;100609.87;1692328;82;21145;-55
2021/09/08 08:26:21;;;;;;;1.62;0.80;;;;;;;19.16;48.75;100607.86;1682322;83;21107;-55
2021/09/08 08:28:47;;;;;;;4.15;0.80;;;;;;;19.23;49.14;100609.66;1692123;82;22234;-55
2021/09/08 08:31:14;;;;;;;3.27;1.20;;;;;;;19.32;48.02;100610.88;1694461;82;21052;-56
2021/09/08 08:33:40;;;;;;;5.83;0.80;;;;;;;19.38;47.44;100608.61;1693503;82;21104;-55
2021/09/08 08:36:07;;;;;;;1.35;0.70;;;;;;;19.46;47.01;100614.39;1690708;82;21187;-55
2021/09/08 08:38:33;;;;;;;3.12;0.72;;;;;;;19.50;46.73;100610.47;1694576;82;21508;-54
2021/09/08 08:41:00;;;;;;;1.65;0.80;;;;;;;19.56;46.45;100612.75;1670801;83;21683;-53
2021/09/08 08:43:26;;;;;;;3.10;0.80;;;;;;;19.63;46.78;100608.62;1671193;83;21045;-53
2021/09/08 08:45:53;;;;;;;1.20;1.00;;;;;;;19.72;46.65;100607.58;1669839;83;21143;-53
2021/09/08 08:48:19;;;;;;;3.45;0.70;;;;;;;19.79;46.89;100603.41;1671348;83;22776;-53
2021/09/08 08:50:45;;;;;;;1.50;0.78;;;;;;;19.86;46.26;100610.16;1670394;83;21132;-54
2021/09/08 08:53:12;;;;;;;3.65;0.70;;;;;;;19.95;46.27;100599.44;1674429;83;20976;-53
2021/09/08 08:55:38;;;;;;;2.08;0.80;;;;;;;20.04;45.94;100603.35;1693085;82;21060;-53
2021/09/08 08:58:05;;;;;;;6.87;0.90;;;;;;;20.13;45.36;100603.16;1671389;83;21091;-53
2021/09/08 09:00:31;;;;;;;3.90;0.80;;;;;;;20.20;45.13;100606.69;1673808;82;22343;-53
2021/09/08 09:02:58;;;;;;;2.70;0.70;;;;;;;20.27;44.59;100605.73;1674675;82;21108;-54
2021/09/08 09:05:38;;;;;;;1.20;0.70;;;;;;;20.33;44.12;100607.50;1672441;83;21036;-52
2021/09/08 09:08:07;;;;;;;4.37;1.00;;;;;;;20.38;44.24;100608.08;1679154;83;20929;-53
2021/09/08 09:10:35;;;;;;;1.50;0.80;;;;;;;20.43;43.58;100606.84;1679821;83;20992;-52
2021/09/08 09:13:03;;;;;;;1.62;0.80;;;;;;;20.47;43.73;100606.52;1681427;83;21108;-53
2021/09/08 09:15:30;;;;;;;1.82;0.70;;;;;;;20.53;44.07;100602.43;1657917;83;21483;-55
2021/09/08 09:17:58;;;;;;;3.45;1.00;;;;;;;20.59;43.55;100591.02;1678636;83;21002;-55
2021/09/08 09:20:29;;;;;;;1.72;0.80;;;;;;;20.64;43.09;100595.66;1674218;83;20981;-56
2021/09/08 09:22:58;;;;;;;1.67;0.60;;;;;;;20.69;43.03;100590.69;1671855;83;20970;-55
2021/09/08 09:25:32;;;;;;;1.77;0.62;;;;;;;20.75;43.19;100593.85;1668969;83;21108;-57
2021/09/08 09:28:00;;;;;;;1.98;0.70;;;;;;;20.80;43.03;100583.91;1671230;83;20959;-56
2021/09/08 09:30:29;;;;;;;1.60;0.80;;;;;;;20.85;41.94;100589.00;1676880;83;21472;-55
2021/09/08 09:32:56;;;;;;;2.50;0.68;;;;;;;20.88;41.72;100579.20;1674658;83;21002;-55
2021/09/08 09:35:25;;;;;;;2.02;0.70;;;;;;;20.91;42.29;100583.95;1713098;81;20928;-56
2021/09/08 09:37:58;;;;;;;0.90;0.70;;;;;;;20.95;42.12;100574.49;1708977;81;20963;-55
2021/09/08 09:40:30;;;;;;;4.05;0.70;;;;;;;20.99;42.13;100571.91;1710763;81;20955;-55
2021/09/08 09:42:56;;;;;;;1.72;0.60;;;;;;;21.04;42.41;100570.16;1711062;81;21523;-53
2021/09/08 09:45:22;;;;;;;2.25;0.80;;;;;;;21.09;41.83;100562.48;1709223;81;22442;-53
2021/09/08 09:47:49;;;;;;;3.22;1.12;;;;;;;21.13;41.77;100565.33;1708719;81;21089;-54
2021/09/08 09:50:20;;;;;;;2.40;0.70;;;;;;;21.15;40.90;100572.94;1709303;82;21102;-53
2021/09/08 09:52:48;;;;;;;2.65;0.75;;;;;;;21.17;41.62;100568.25;1708810;81;21142;-53
2021/09/08 09:55:15;;;;;;;1.30;0.90;;;;;;;21.19;42.01;100562.13;1711167;81;21061;-54
2021/09/08 09:57:42;;;;;;;3.87;0.70;;;;;;;21.23;41.42;100562.77;1711612;81;20876;-53
2021/09/08 10:00:10;;;;;;;2.55;0.80;;;;;;;21.25;41.30;100564.91;1713494;81;20962;-53
2021/09/08 10:02:40;;;;;;;4.28;1.45;;;;;;;21.28;41.61;100555.92;1711377;81;22324;-53
2021/09/08 10:05:08;;;;;;;3.58;1.10;;;;;;;21.29;41.74;100561.78;1707158;81;21042;-53
2021/09/08 10:07:35;;;;;;;3.22;0.90;;;;;;;21.33;41.79;100556.45;1710987;81;21105;-53
2021/09/08 10:10:15;;;;;;;2.27;0.90;;;;;;;21.36;41.46;100553.44;1711526;81;20947;-53
2021/09/08 10:12:51;;;;;;;4.20;0.70;;;;;;;21.40;41.66;100546.74;1711872;81;21328;-52
2021/09/08 10:15:19;;;;;;;2.00;0.70;;;;;;;21.45;41.73;100544.48;1704867;81;21125;-53
2021/09/08 10:17:47;;;;;;;4.17;0.90;;;;;;;21.49;41.44;100541.02;1714439;80;21097;-54
2021/09/08 10:20:21;;;;;;;1.10;0.80;;;;;;;21.49;41.46;100531.43;1713370;80;21153;-54
2021/09/08 10:22:48;;;;;;;1.27;0.70;;;;;;;21.45;41.47;100540.38;1718026;80;21236;-52
2021/09/08 10:25:18;;;;;;;2.67;0.68;;;;;;;21.46;41.29;100540.76;1715855;80;21041;-53
2021/09/08 10:27:44;;;;;;;1.12;0.88;;;;;;;21.46;41.53;100532.54;1719914;80;21085;-54
2021/09/08 10:30:12;;;;;;;2.12;0.70;;;;;;;21.48;41.33;100519.60;1715466;80;21056;-53
2021/09/08 10:32:39;;;;;;;1.82;0.82;;;;;;;21.51;41.65;100525.34;1713967;81;21093;-53
2021/09/08 10:35:15;;;;;;;4.00;0.82;;;;;;;21.52;41.03;100527.08;1717820;80;21625;-53
2021/09/08 10:37:50;;;;;;;4.28;1.52;;;;;;;21.50;40.83;100518.11;1714259;80;21045;-53
2021/09/08 10:40:19;;;;;;;3.10;0.80;;;;;;;21.52;41.23;100523.81;1714544;80;21238;-55
2021/09/08 10:42:51;;;;;;;1.87;0.72;;;;;;;21.57;41.63;100520.72;1719307;80;20907;-55
2021/09/08 10:45:27;;;;;;;9.93;0.82;;;;;;;21.63;41.60;100519.34;1714779;80;21223;-54
2021/09/08 10:47:55;;;;;;;2.95;1.70;;;;;;;21.65;41.58;100508.63;1717605;80;20999;-54
2021/09/08 10:50:44;;;;;;;1.35;0.70;;;;;;;21.70;41.52;100506.38;1720967;80;20954;-53
2021/09/08 10:53:27;;;;;;;3.60;0.80;;;;;;;21.75;41.35;100507.38;1715274;80;21140;-54
2021/09/08 10:55:53;;;;;;;2.58;0.90;;;;;;;21.79;40.97;100504.24;1714899;80;21058;-55
2021/09/08 10:58:20;;;;;;;1.60;0.80;;;;;;;21.82;40.83;100502.63;1717470;80;21124;-55
2021/09/08 11:00:47;;;;;;;2.65;0.80;;;;;;;21.87;40.75;100510.45;1715937;80;21066;-55
2021/09/08 11:03:21;;;;;;;2.37;0.90;;;;;;;21.87;40.45;100508.59;1714860;80;21756;-55
2021/09/08 11:05:58;;;;;;;3.12;1.20;;;;;;;21.88;40.39;100508.96;1721179;80;22209;-55
2021/09/08 11:08:30;;;;;;;3.95;0.90;;;;;;;21.88;40.51;100504.84;1716988;80;21125;-55
2021/09/08 11:11:18;;;;;;;4.57;0.93;;;;;;;21.90;40.94;100496.50;1719829;80;21117;-55
2021/09/08 11:13:53;;;;;;;1.95;1.07;;;;;;;21.94;40.87;100501.25;1718154;80;20995;-55
2021/09/08 11:16:20;;;;;;;1.57;0.90;;;;;;;21.95;41.24;100494.23;1686629;80;21141;-55
2021/09/08 11:18:46;;;;;;;1.00;0.80;;;;;;;22.00;40.73;100496.14;1720989;80;21104;-54
2021/09/08 11:21:13;;;;;;;1.60;0.90;;;;;;;22.05;40.62;100495.74;1723742;80;21098;-54
2021/09/08 11:23:40;;;;;;;2.45;0.95;;;;;;;22.07;40.54;100496.49;1720081;80;21076;-55
2021/09/08 11:26:09;;;;;;;3.05;1.00;;;;;;;22.09;40.60;100497.24;1721030;80;21085;-55
2021/09/08 11:28:37;;;;;;;4.87;0.90;;;;;;;22.10;40.49;100499.86;1721041;80;21172;-55